createdAt,value
2023-05-08T00:01:31.190Z,10.57
2023-05-08T00:03:58.418Z,10.70
2023-05-08T00:06:25.616Z,11.47
2023-05-08T00:08:52.452Z,11.93
2023-05-08T00:11:19.350Z,12.33
2023-05-08T00:13:46.131Z,12.07
2023-05-08T00:16:13.209Z,12.70
2023-05-08T00:18:40.386Z,12.90
2023-05-08T00:21:07.286Z,12.23
2023-05-08T00:23:34.733Z,12.40
2023-05-08T00:26:01.667Z,11.87
2023-05-08T00:28:28.505Z,12.43
2023-05-08T00:31:02.025Z,13.40
2023-05-08T00:33:28.948Z,12.10
2023-05-08T00:36:05.775Z,14.43
2023-05-08T00:38:33.973Z,13.53
2023-05-08T00:41:01.812Z,14.50
2023-05-08T00:43:28.940Z,14.17
2023-05-08T00:46:01.406Z,12.90
2023-05-08T00:48:32.042Z,13.03
2023-05-08T00:51:04.551Z,13.63
2023-05-08T00:53:33.837Z,12.27
2023-05-08T00:56:03.849Z,12.53
2023-05-08T00:58:32.505Z,13.90
2023-05-08T01:01:00.794Z,13.27
2023-05-08T01:03:28.729Z,13.67
2023-05-08T01:05:57.599Z,12.47
2023-05-08T01:08:27.384Z,12.53
2023-05-08T01:10:54.092Z,13.33
2023-05-08T01:13:40.617Z,13.67
2023-05-08T01:16:16.418Z,13.70
2023-05-08T01:18:51.166Z,13.20
2023-05-08T01:21:34.615Z,12.13
2023-05-08T01:24:24.770Z,12.17
2023-05-08T01:27:43.853Z,13.20
2023-05-08T01:30:48.259Z,13.20
2023-05-08T01:33:25.553Z,11.63
2023-05-08T01:36:15.115Z,12.93
2023-05-08T01:39:13.431Z,14.00
2023-05-08T01:41:45.741Z,12.57
2023-05-08T01:44:24.736Z,13.63
2023-05-08T01:46:52.401Z,13.00
2023-05-08T01:49:34.510Z,13.57
2023-05-08T01:52:07.475Z,12.63
2023-05-08T01:54:41.282Z,13.37
2023-05-08T01:57:13.441Z,13.53
2023-05-08T01:59:43.100Z,14.30
2023-05-08T02:02:11.186Z,14.37
2023-05-08T02:04:39.881Z,12.73
2023-05-08T02:07:08.088Z,13.80
2023-05-08T02:09:35.624Z,12.27
2023-05-08T02:12:03.808Z,14.07
2023-05-08T02:14:32.915Z,12.87
2023-05-08T02:17:01.411Z,15.17
2023-05-08T02:19:29.794Z,14.50
2023-05-08T02:21:58.852Z,15.13
2023-05-08T02:24:26.432Z,15.33
2023-05-08T02:26:57.428Z,14.60
2023-05-08T02:29:25.322Z,16.23
2023-05-08T02:31:54.402Z,15.67
2023-05-08T02:34:23.442Z,16.20
2023-05-08T02:36:52.636Z,15.40
2023-05-08T02:39:21.603Z,15.57
2023-05-08T02:41:48.982Z,14.93
2023-05-08T02:44:17.102Z,15.53
2023-05-08T02:46:58.016Z,15.03
2023-05-08T02:49:33.394Z,15.23
2023-05-08T02:52:14.400Z,16.57
2023-05-08T02:54:55.721Z,15.83
2023-05-08T02:57:33.387Z,16.73
2023-05-08T03:00:11.605Z,16.43
2023-05-08T03:02:43.209Z,15.97
2023-05-08T03:05:19.245Z,16.33
2023-05-08T03:07:50.184Z,16.13
2023-05-08T03:10:19.657Z,16.77
2023-05-08T03:12:49.708Z,17.97
2023-05-08T03:15:26.964Z,13.60
2023-05-08T03:17:58.844Z,15.87
2023-05-08T03:20:29.560Z,17.60
2023-05-08T03:22:57.184Z,16.90
2023-05-08T03:25:24.712Z,18.00
2023-05-08T03:27:53.044Z,17.33
2023-05-08T03:30:20.621Z,17.17
2023-05-08T03:32:52.005Z,17.03
2023-05-08T03:35:19.753Z,16.63
2023-05-08T03:37:46.690Z,17.33
2023-05-08T03:40:13.986Z,15.50
2023-05-08T03:42:42.597Z,17.13
2023-05-08T03:45:10.821Z,16.53
2023-05-08T03:47:38.188Z,16.20
2023-05-08T03:50:06.065Z,17.40
2023-05-08T03:52:32.843Z,16.27
2023-05-08T03:54:59.703Z,15.10
2023-05-08T03:57:31.341Z,16.97
2023-05-08T04:00:03.514Z,16.63
2023-05-08T04:02:43.134Z,16.93
2023-05-08T04:05:26.124Z,15.60
2023-05-08T04:08:37.002Z,16.53
2023-05-08T04:11:18.130Z,14.40
2023-05-08T04:13:54.214Z,16.13
2023-05-08T04:16:27.131Z,17.37
2023-05-08T04:18:59.800Z,15.60
2023-05-08T04:21:29.065Z,15.17
2023-05-08T04:23:58.364Z,15.67
2023-05-08T04:26:26.014Z,13.23
2023-05-08T04:28:53.358Z,14.20
2023-05-08T04:31:20.836Z,15.13
2023-05-08T04:33:48.059Z,14.30
2023-05-08T04:36:14.940Z,15.37
2023-05-08T04:38:41.872Z,14.70
2023-05-08T04:41:08.844Z,15.60
2023-05-08T04:43:36.746Z,15.97
2023-05-08T04:46:05.464Z,15.23
2023-05-08T04:48:33.857Z,15.70
2023-05-08T04:51:01.092Z,15.93
2023-05-08T04:53:28.128Z,16.20
2023-05-08T04:55:58.652Z,16.63
2023-05-08T04:58:25.412Z,17.50
2023-05-08T05:00:52.191Z,16.93
2023-05-08T05:03:19.104Z,20.20
2023-05-08T05:05:45.928Z,18.63
2023-05-08T05:08:12.662Z,18.50
2023-05-08T05:10:40.000Z,21.13
2023-05-08T05:13:06.770Z,21.37
2023-05-08T05:15:33.711Z,20.77
2023-05-08T05:18:00.615Z,20.83
2023-05-08T05:20:27.473Z,20.13
2023-05-08T05:22:54.316Z,20.93
2023-05-08T05:25:21.033Z,20.63
2023-05-08T05:27:47.753Z,24.23
2023-05-08T05:30:14.970Z,24.57
2023-05-08T05:32:42.485Z,25.63
2023-05-08T05:35:09.999Z,26.23
2023-05-08T05:37:37.320Z,28.47
2023-05-08T05:40:04.568Z,24.83
2023-05-08T05:42:31.633Z,20.37
2023-05-08T05:44:59.157Z,20.10
2023-05-08T05:47:26.072Z,20.00
2023-05-08T05:49:52.820Z,20.13
2023-05-08T05:52:19.593Z,20.37
2023-05-08T05:54:46.701Z,20.17
2023-05-08T05:57:13.952Z,20.73
2023-05-08T05:59:41.116Z,19.93
2023-05-08T06:02:10.502Z,20.70
2023-05-08T06:04:39.928Z,21.63
2023-05-08T06:07:06.598Z,21.27
2023-05-08T06:09:33.364Z,21.83
2023-05-08T06:12:00.110Z,22.43
2023-05-08T06:14:29.665Z,22.97
2023-05-08T06:16:58.951Z,23.83
2023-05-08T06:19:26.215Z,24.10
2023-05-08T06:21:52.944Z,25.70
2023-05-08T06:24:19.710Z,24.30
2023-05-08T06:26:49.617Z,25.07
2023-05-08T06:29:16.675Z,24.87
2023-05-08T06:31:43.570Z,26.27
2023-05-08T06:34:10.596Z,25.67
2023-05-08T06:36:37.645Z,27.57
2023-05-08T06:39:06.164Z,26.23
2023-05-08T06:41:32.973Z,27.27
2023-05-08T06:43:59.799Z,25.60
2023-05-08T06:46:26.687Z,25.47
2023-05-08T06:48:54.648Z,26.10
2023-05-08T06:51:23.260Z,25.93
2023-05-08T06:53:50.368Z,25.90
2023-05-08T06:56:18.234Z,27.13
2023-05-08T06:59:00.600Z,27.50
2023-05-08T07:01:36.210Z,27.90
2023-05-08T07:04:03.354Z,28.07
2023-05-08T07:06:34.295Z,28.13
2023-05-08T07:09:01.156Z,28.20
2023-05-08T07:11:27.876Z,26.73
2023-05-08T07:13:54.645Z,27.40
2023-05-08T07:16:21.472Z,27.57
2023-05-08T07:18:48.351Z,26.63
2023-05-08T07:21:15.951Z,28.13
2023-05-08T07:23:42.700Z,28.93
2023-05-08T07:26:09.446Z,27.53
2023-05-08T07:28:38.851Z,29.63
2023-05-08T07:31:07.244Z,30.07
2023-05-08T07:33:34.669Z,28.90
2023-05-08T07:36:01.910Z,29.37
2023-05-08T07:38:28.653Z,29.23
2023-05-08T07:40:57.576Z,28.77
2023-05-08T07:43:24.605Z,29.53
2023-05-08T07:45:54.136Z,30.40
2023-05-08T07:48:21.321Z,30.57
2023-05-08T07:50:50.333Z,28.77
2023-05-08T07:53:17.551Z,30.53
2023-05-08T07:55:44.345Z,29.10
2023-05-08T07:58:11.152Z,30.50
2023-05-08T08:00:38.046Z,30.57
2023-05-08T08:03:04.977Z,30.77
2023-05-08T08:05:32.059Z,30.90
2023-05-08T08:07:58.959Z,29.10
2023-05-08T08:10:26.005Z,31.27
2023-05-08T08:12:52.922Z,30.60
2023-05-08T08:15:19.938Z,30.40
2023-05-08T08:17:46.951Z,29.53
2023-05-08T08:20:13.864Z,28.37
2023-05-08T08:22:40.686Z,26.73
2023-05-08T08:25:08.169Z,29.33
2023-05-08T08:27:35.160Z,28.27
2023-05-08T08:30:15.749Z,27.03
2023-05-08T08:32:44.318Z,27.37
2023-05-08T08:35:15.660Z,26.07
2023-05-08T08:37:46.170Z,28.60
2023-05-08T08:40:13.113Z,28.87
2023-05-08T08:42:40.939Z,29.30
2023-05-08T08:45:08.464Z,28.87
2023-05-08T08:47:41.477Z,27.40
2023-05-08T08:50:11.293Z,27.33
2023-05-08T08:53:03.247Z,25.13
2023-05-08T08:55:37.617Z,26.03
2023-05-08T08:58:19.318Z,26.33
2023-05-08T09:00:48.568Z,27.17
2023-05-08T09:03:18.598Z,24.90
2023-05-08T09:05:46.063Z,25.47
2023-05-08T09:08:13.031Z,24.47
2023-05-08T09:10:39.969Z,24.30
2023-05-08T09:13:07.161Z,24.27
2023-05-08T09:15:34.163Z,24.03
2023-05-08T09:18:04.339Z,24.07
2023-05-08T09:20:34.583Z,23.87
2023-05-08T09:23:02.890Z,24.87
2023-05-08T09:25:47.029Z,25.53
2023-05-08T09:28:26.436Z,25.13
2023-05-08T09:30:56.632Z,21.67
2023-05-08T09:33:28.019Z,23.30
2023-05-08T09:35:58.149Z,23.87
2023-05-08T09:38:39.944Z,22.80
2023-05-08T09:41:14.828Z,23.00
2023-05-08T09:43:43.205Z,23.83
2023-05-08T09:46:26.748Z,22.33
2023-05-08T09:48:56.081Z,24.63
2023-05-08T09:51:23.481Z,22.53
2023-05-08T09:53:55.240Z,21.70
2023-05-08T09:56:35.105Z,26.97
2023-05-08T09:59:28.736Z,27.97
2023-05-08T10:01:56.245Z,29.23
2023-05-08T10:04:36.207Z,27.33
2023-05-08T10:07:04.758Z,28.03
2023-05-08T10:09:42.662Z,27.30
2023-05-08T10:12:17.288Z,27.07
2023-05-08T10:14:47.117Z,27.60
2023-05-08T10:17:24.623Z,28.37
2023-05-08T10:20:01.187Z,26.47
2023-05-08T10:22:33.648Z,26.20
2023-05-08T10:25:02.834Z,27.53
2023-05-08T10:27:53.338Z,28.67
2023-05-08T10:30:26.075Z,27.50
2023-05-08T10:32:58.434Z,28.67
2023-05-08T10:35:25.445Z,28.77
2023-05-08T10:37:53.774Z,29.37
2023-05-08T10:40:21.893Z,29.23
2023-05-08T10:42:50.768Z,28.13
2023-05-08T10:45:17.838Z,29.50
2023-05-08T10:48:22.482Z,27.03
2023-05-08T10:51:10.183Z,28.30
2023-05-08T10:53:57.279Z,24.90
2023-05-08T10:56:27.867Z,25.87
2023-05-08T10:59:00.797Z,26.63
2023-05-08T11:01:28.250Z,29.33
2023-05-08T11:03:58.873Z,24.90
2023-05-08T11:06:46.608Z,28.23
2023-05-08T11:09:21.906Z,27.00
2023-05-08T11:12:19.697Z,24.97
2023-05-08T11:15:02.065Z,27.47
2023-05-08T11:17:29.351Z,26.03
2023-05-08T11:20:01.102Z,26.97
2023-05-08T11:22:38.218Z,25.60
2023-05-08T11:25:07.497Z,26.53
2023-05-08T11:27:40.796Z,25.90
2023-05-08T11:30:24.055Z,25.30
2023-05-08T11:33:09.170Z,24.77
2023-05-08T11:35:44.956Z,26.17
2023-05-08T11:38:17.715Z,23.93
2023-05-08T11:41:22.169Z,25.03
2023-05-08T11:44:20.017Z,24.90
2023-05-08T11:46:54.839Z,26.13
2023-05-08T11:49:29.859Z,23.63
2023-05-08T11:51:59.141Z,26.40
2023-05-08T11:54:29.273Z,25.97
2023-05-08T11:56:56.302Z,26.50
2023-05-08T11:59:24.789Z,26.60
2023-05-08T12:02:09.772Z,26.83
2023-05-08T12:05:00.767Z,25.00
2023-05-08T12:07:50.031Z,24.83
2023-05-08T12:10:24.535Z,25.93
2023-05-08T12:13:15.612Z,22.40
2023-05-08T12:15:53.193Z,22.77
2023-05-08T12:18:21.841Z,22.42
2023-05-08T12:20:57.251Z,22.52
2023-05-08T12:23:37.388Z,21.38
2023-05-08T12:26:04.583Z,22.60
2023-05-08T12:28:34.332Z,22.50
2023-05-08T12:31:04.765Z,24.15
2023-05-08T12:33:33.970Z,24.20
2023-05-08T12:36:01.974Z,25.25
2023-05-08T12:44:40.827Z,22.50
2023-05-08T12:52:06.306Z,20.80
2023-05-08T12:55:53.313Z,21.20
2023-05-08T13:05:26.275Z,19.90
2023-05-08T13:07:58.762Z,18.90
2023-05-08T13:10:26.686Z,20.55
2023-05-08T13:12:54.527Z,21.10
2023-05-08T13:15:21.367Z,21.42
2023-05-08T13:18:05.628Z,22.52
2023-05-08T13:20:32.410Z,21.60
2023-05-08T13:25:36.674Z,22.48
2023-05-08T13:28:04.332Z,23.40
2023-05-08T13:30:31.473Z,22.20
2023-05-08T13:32:58.500Z,23.33
2023-05-08T13:35:26.175Z,24.58
2023-05-08T13:37:53.073Z,22.15
2023-05-08T13:40:19.942Z,23.63
2023-05-08T13:42:47.103Z,22.85
2023-05-08T13:45:18.532Z,22.38
2023-05-08T13:47:47.845Z,22.13
2023-05-08T13:50:16.185Z,22.90
2023-05-08T13:52:43.514Z,22.13
2023-05-08T13:55:12.758Z,20.63
2023-05-08T13:57:40.470Z,21.30
2023-05-08T14:00:09.384Z,21.00
2023-05-08T14:02:37.683Z,22.02
2023-05-08T14:05:07.958Z,21.67
2023-05-08T14:07:35.729Z,22.30
2023-05-08T14:10:03.025Z,23.70
2023-05-08T14:12:29.849Z,21.83
2023-05-08T14:14:56.737Z,24.63
2023-05-08T14:17:23.496Z,24.63
2023-05-08T14:19:50.285Z,23.02
2023-05-08T14:22:17.138Z,24.08
2023-05-08T14:24:44.384Z,23.52
2023-05-08T14:27:11.296Z,23.08
2023-05-08T14:29:38.292Z,22.83
2023-05-08T14:32:05.719Z,20.38
2023-05-08T14:34:32.741Z,22.65
2023-05-08T14:37:03.298Z,22.30
2023-05-08T14:39:30.206Z,22.38
2023-05-08T14:42:20.677Z,21.75
2023-05-08T14:44:44.379Z,22.10
2023-05-08T14:47:11.248Z,21.58
2023-05-08T14:49:38.774Z,22.98
2023-05-08T14:52:07.021Z,23.40
2023-05-08T14:54:34.318Z,24.40
2023-05-08T14:57:01.219Z,25.55
2023-05-08T14:59:28.169Z,24.52
2023-05-08T15:01:55.074Z,24.40
2023-05-08T15:04:24.877Z,25.35
2023-05-08T15:06:51.631Z,24.63
2023-05-08T15:09:18.399Z,26.35
2023-05-08T15:11:47.988Z,25.67
2023-05-08T15:14:17.552Z,27.02
2023-05-08T15:16:44.403Z,27.97
2023-05-08T15:19:11.317Z,27.33
2023-05-08T15:21:39.244Z,27.70
2023-05-08T15:24:06.421Z,28.77
2023-05-08T15:26:33.215Z,27.87
2023-05-08T15:29:00.130Z,29.23
2023-05-08T15:31:26.872Z,31.97
2023-05-08T15:33:53.666Z,30.67
2023-05-08T15:36:20.416Z,31.60
2023-05-08T15:38:49.165Z,34.20
2023-05-08T15:41:16.028Z,34.90
2023-05-08T15:43:45.142Z,35.67
2023-05-08T15:46:12.050Z,34.73
2023-05-08T15:48:38.997Z,34.53
2023-05-08T15:51:06.774Z,36.13
2023-05-08T15:53:34.318Z,34.87
2023-05-08T15:56:01.157Z,32.67
2023-05-08T15:58:27.920Z,33.23
2023-05-08T16:00:54.852Z,34.07
2023-05-08T16:03:22.275Z,32.27
2023-05-08T16:05:49.780Z,31.00
2023-05-08T16:08:18.796Z,31.70
2023-05-08T16:10:45.564Z,29.00
2023-05-08T16:13:12.485Z,27.10
2023-05-08T16:15:39.270Z,27.03
2023-05-08T16:18:06.912Z,29.87
2023-05-08T16:20:36.058Z,22.20
2023-05-08T16:23:03.275Z,20.63
2023-05-08T16:25:29.969Z,20.30
2023-05-08T16:27:57.017Z,19.17
2023-05-08T16:30:23.814Z,19.90
2023-05-08T16:32:50.721Z,19.97
2023-05-08T16:35:18.066Z,19.80
2023-05-08T16:37:45.217Z,19.07
2023-05-08T16:40:12.325Z,19.10
2023-05-08T16:42:39.167Z,17.90
2023-05-08T16:45:06.549Z,23.27
2023-05-08T16:47:34.019Z,29.43
2023-05-08T16:50:01.047Z,31.83
2023-05-08T16:52:30.260Z,30.17
2023-05-08T16:54:57.470Z,31.13
2023-05-08T16:57:24.443Z,30.70
2023-05-08T16:59:51.990Z,27.63
2023-05-08T17:02:19.302Z,27.07
2023-05-08T17:04:47.379Z,26.37
2023-05-08T17:07:15.080Z,26.10
2023-05-08T17:09:45.334Z,26.27
2023-05-08T17:12:12.164Z,24.90
2023-05-08T17:14:40.429Z,23.57
2023-05-08T17:17:07.724Z,23.37
2023-05-08T17:19:35.039Z,22.77
2023-05-08T17:22:02.386Z,21.93
2023-05-08T17:24:30.558Z,21.63
2023-05-08T17:26:57.402Z,20.00
2023-05-08T17:29:26.401Z,20.73
2023-05-08T17:31:53.233Z,20.40
2023-05-08T17:34:22.413Z,20.60
2023-05-08T17:36:49.375Z,20.67
2023-05-08T17:39:18.217Z,20.03
2023-05-08T17:41:45.012Z,20.73
2023-05-08T17:44:11.793Z,20.23
2023-05-08T17:46:38.589Z,20.47
2023-05-08T17:49:05.519Z,19.93
2023-05-08T17:51:32.439Z,19.87
2023-05-08T17:53:59.157Z,20.47
2023-05-08T17:56:26.257Z,19.40
2023-05-08T17:58:53.177Z,20.13
2023-05-08T18:01:20.584Z,20.27
2023-05-08T18:03:48.620Z,19.07
2023-05-08T18:06:16.361Z,19.50
2023-05-08T18:08:43.383Z,21.17
2023-05-08T18:11:38.642Z,20.20
2023-05-08T18:14:05.394Z,20.43
2023-05-08T18:16:32.261Z,20.47
2023-05-08T18:19:01.967Z,19.23
2023-05-08T18:21:28.927Z,20.47
2023-05-08T18:23:55.824Z,20.83
2023-05-08T18:26:22.681Z,21.37
2023-05-08T18:28:49.434Z,21.83
2023-05-08T18:31:16.815Z,22.60
2023-05-08T18:33:45.762Z,23.77
2023-05-08T18:36:12.513Z,22.17
2023-05-08T18:38:41.600Z,25.53
2023-05-08T18:41:08.527Z,20.30
2023-05-08T18:43:35.386Z,22.47
2023-05-08T18:46:12.520Z,20.00
2023-05-08T18:48:42.988Z,22.30
2023-05-08T18:51:10.613Z,22.20
2023-05-08T18:53:41.030Z,22.93
2023-05-08T18:56:18.116Z,24.03
2023-05-08T18:58:46.511Z,24.23
2023-05-08T19:01:13.613Z,24.20
2023-05-08T19:03:40.428Z,23.47
2023-05-08T19:06:07.395Z,24.40
2023-05-08T19:08:34.177Z,23.90
2023-05-08T19:11:00.991Z,24.60
2023-05-08T19:13:27.910Z,25.20
2023-05-08T19:15:54.791Z,24.50
2023-05-08T19:18:21.726Z,25.07
2023-05-08T19:20:48.442Z,25.97
2023-05-08T19:23:17.344Z,25.17
2023-05-08T19:25:47.344Z,26.43
2023-05-08T19:28:14.543Z,24.00
2023-05-08T19:30:41.350Z,24.73
2023-05-08T19:33:08.249Z,24.50
2023-05-08T19:35:35.005Z,23.83
2023-05-08T19:38:01.726Z,26.77
2023-05-08T19:40:31.850Z,26.77
2023-05-08T19:42:59.871Z,24.97
2023-05-08T19:45:26.757Z,25.07
2023-05-08T19:47:53.666Z,27.23
2023-05-08T19:50:20.651Z,26.10
2023-05-08T19:52:48.718Z,24.63
2023-05-08T19:55:16.749Z,25.90
2023-05-08T19:57:44.161Z,26.27
2023-05-08T20:00:12.150Z,23.93
2023-05-08T20:02:39.376Z,24.60
2023-05-08T20:07:36.386Z,27.30
2023-05-08T20:10:03.172Z,24.07
2023-05-08T20:12:30.058Z,24.97
2023-05-08T20:14:56.799Z,27.30
2023-05-08T20:17:23.710Z,24.83
2023-05-08T20:19:50.594Z,27.70
2023-05-08T20:22:17.454Z,27.53
2023-05-08T20:24:44.212Z,28.93
2023-05-08T20:27:11.152Z,28.20
2023-05-08T20:29:38.053Z,27.50
2023-05-08T20:32:07.277Z,28.27
2023-05-08T20:34:34.907Z,26.10
2023-05-08T20:37:03.781Z,28.10
2023-05-08T20:39:30.649Z,29.67
2023-05-08T20:41:57.522Z,28.00
2023-05-08T20:44:24.307Z,26.40
2023-05-08T20:46:54.964Z,27.10
2023-05-08T20:49:21.886Z,25.30
2023-05-08T20:51:48.574Z,26.47
2023-05-08T20:54:15.397Z,25.50
2023-05-08T20:56:42.194Z,26.27
2023-05-08T20:59:08.963Z,25.50
2023-05-08T21:01:38.641Z,28.40
2023-05-08T21:04:05.416Z,27.90
2023-05-08T21:06:32.272Z,26.93
2023-05-08T21:08:59.053Z,27.83
2023-05-08T21:11:25.799Z,26.83
2023-05-08T21:13:52.620Z,26.23
2023-05-08T21:16:19.433Z,25.90
2023-05-08T21:18:46.358Z,26.33
2023-05-08T21:21:22.703Z,26.20
2023-05-08T21:23:49.474Z,27.00
2023-05-08T21:26:16.246Z,27.37
2023-05-08T21:28:42.949Z,25.90
2023-05-08T21:31:09.842Z,25.63
2023-05-08T21:33:36.767Z,26.63
2023-05-08T21:36:03.699Z,25.83
2023-05-08T21:38:30.657Z,26.80
2023-05-08T21:40:57.592Z,26.40
2023-05-08T21:43:27.348Z,26.80
2023-05-08T21:45:54.326Z,27.00
2023-05-08T21:48:22.945Z,26.63
2023-05-08T21:50:52.791Z,27.97
2023-05-08T21:53:19.764Z,27.57
2023-05-08T21:55:46.600Z,27.30
2023-05-08T21:58:13.525Z,27.73
2023-05-08T22:00:42.836Z,27.80
2023-05-08T22:03:09.737Z,28.53
2023-05-08T22:05:36.634Z,27.73
2023-05-08T22:08:03.492Z,27.50
2023-05-08T22:10:30.321Z,25.47
2023-05-08T22:13:01.667Z,27.13
2023-05-08T22:15:30.594Z,27.73
2023-05-08T22:17:58.611Z,28.87
2023-05-08T22:20:25.984Z,28.23
2023-05-08T22:22:52.945Z,26.77
2023-05-08T22:25:21.807Z,28.90
2023-05-08T22:27:48.745Z,28.73
2023-05-08T22:30:15.571Z,27.73
2023-05-08T22:32:42.807Z,26.63
2023-05-08T22:35:12.752Z,25.90
2023-05-08T22:37:42.325Z,26.30
2023-05-08T22:40:12.669Z,26.27
2023-05-08T22:42:39.505Z,24.80
2023-05-08T22:45:06.776Z,25.47
2023-05-08T22:47:34.497Z,27.33
2023-05-08T22:50:02.276Z,26.07
2023-05-08T22:52:29.294Z,24.77
2023-05-08T22:54:56.126Z,27.10
2023-05-08T22:57:22.914Z,26.57
2023-05-08T22:59:49.684Z,24.93
2023-05-08T23:02:16.410Z,24.93
2023-05-08T23:04:43.182Z,25.47
2023-05-08T23:07:09.985Z,26.63
2023-05-08T23:09:36.976Z,27.10
2023-05-08T23:12:04.141Z,26.83
2023-05-08T23:14:30.880Z,27.30
2023-05-08T23:16:57.748Z,25.77
2023-05-08T23:19:24.496Z,26.67
2023-05-08T23:21:51.421Z,26.33
2023-05-08T23:24:19.970Z,25.17
2023-05-08T23:26:49.624Z,26.33
2023-05-08T23:29:16.762Z,25.30
2023-05-08T23:31:43.646Z,25.87
2023-05-08T23:34:10.582Z,26.10
2023-05-08T23:36:37.354Z,26.33
2023-05-08T23:39:04.284Z,26.30
2023-05-08T23:41:34.374Z,28.93
2023-05-08T23:44:01.250Z,26.47
2023-05-08T23:46:28.036Z,27.67
2023-05-08T23:48:55.097Z,28.43
2023-05-08T23:51:21.964Z,28.60
2023-05-08T23:53:50.143Z,27.10
2023-05-08T23:56:17.035Z,28.80
2023-05-08T23:58:43.997Z,29.10
